sensor_id;sensor_type;location;lat;lon;timestamp;temperature;humidity
18434;DHT22;9344;52.294;13.626;2022-12-20T00:00:42;4.20;99.90
18434;DHT22;9344;52.294;13.626;2022-12-20T00:03:09;4.30;99.90
18434;DHT22;9344;52.294;13.626;2022-12-20T00:05:37;4.30;99.90
18434;DHT22;9344;52.294;13.626;2022-12-20T00:08:04;4.30;99.90
18434;DHT22;9344;52.294;13.626;2022-12-20T00:10:34;4.30;99.90
18434;DHT22;9344;52.294;13.626;2022-12-20T00:13:00;4.30;99.90
18434;DHT22;9344;52.294;13.626;2022-12-20T00:15:27;4.40;99.90
18434;DHT22;9344;52.294;13.626;2022-12-20T00:17:54;4.40;99.90
18434;DHT22;9344;52.294;13.626;2022-12-20T00:20:20;4.40;99.90
18434;DHT22;9344;52.294;13.626;2022-12-20T00:22:48;4.50;99.90
18434;DHT22;9344;52.294;13.626;2022-12-20T00:25:15;4.50;99.90
18434;DHT22;9344;52.294;13.626;2022-12-20T00:27:41;4.50;99.90
18434;DHT22;9344;52.294;13.626;2022-12-20T00:30:08;4.50;99.90
18434;DHT22;9344;52.294;13.626;2022-12-20T00:32:35;4.60;99.90
18434;DHT22;9344;52.294;13.626;2022-12-20T00:35:01;4.60;99.90
18434;DHT22;9344;52.294;13.626;2022-12-20T00:37:28;4.60;99.90
18434;DHT22;9344;52.294;13.626;2022-12-20T00:39:56;4.60;99.90
18434;DHT22;9344;52.294;13.626;2022-12-20T00:42:22;4.60;99.90
18434;DHT22;9344;52.294;13.626;2022-12-20T00:44:49;4.70;99.90
18434;DHT22;9344;52.294;13.626;2022-12-20T00:47:15;4.70;99.90
18434;DHT22;9344;52.294;13.626;2022-12-20T00:49:42;4.80;99.90
18434;DHT22;9344;52.294;13.626;2022-12-20T00:52:08;4.60;99.90
18434;DHT22;9344;52.294;13.626;2022-12-20T00:54:35;4.60;99.90
18434;DHT22;9344;52.294;13.626;2022-12-20T00:57:03;4.70;99.90
18434;DHT22;9344;52.294;13.626;2022-12-20T00:59:29;4.70;99.90
18434;DHT22;9344;52.294;13.626;2022-12-20T01:01:56;4.70;99.90
18434;DHT22;9344;52.294;13.626;2022-12-20T01:04:22;4.70;99.90
18434;DHT22;9344;52.294;13.626;2022-12-20T01:06:49;4.70;99.90
18434;DHT22;9344;52.294;13.626;2022-12-20T01:09:15;4.70;99.90
18434;DHT22;9344;52.294;13.626;2022-12-20T01:11:42;4.70;99.90
18434;DHT22;9344;52.294;13.626;2022-12-20T01:14:13;4.70;99.90
18434;DHT22;9344;52.294;13.626;2022-12-20T01:16:42;4.70;99.90
18434;DHT22;9344;52.294;13.626;2022-12-20T01:19:10;4.80;99.90
18434;DHT22;9344;52.294;13.626;2022-12-20T01:21:37;4.70;99.90
18434;DHT22;9344;52.294;13.626;2022-12-20T01:24:04;4.70;99.90
18434;DHT22;9344;52.294;13.626;2022-12-20T01:26:30;4.70;99.90
18434;DHT22;9344;52.294;13.626;2022-12-20T01:28:58;4.70;99.90
18434;DHT22;9344;52.294;13.626;2022-12-20T01:31:28;4.80;99.90
18434;DHT22;9344;52.294;13.626;2022-12-20T01:33:55;4.80;99.90
18434;DHT22;9344;52.294;13.626;2022-12-20T01:36:23;4.80;99.90
18434;DHT22;9344;52.294;13.626;2022-12-20T01:38:50;4.80;99.90
18434;DHT22;9344;52.294;13.626;2022-12-20T01:41:18;4.80;99.90
18434;DHT22;9344;52.294;13.626;2022-12-20T01:43:48;4.80;99.90
18434;DHT22;9344;52.294;13.626;2022-12-20T01:46:15;4.80;99.90
18434;DHT22;9344;52.294;13.626;2022-12-20T01:48:45;4.80;99.90
18434;DHT22;9344;52.294;13.626;2022-12-20T01:51:13;4.90;99.90
18434;DHT22;9344;52.294;13.626;2022-12-20T01:53:40;4.50;99.90
18434;DHT22;9344;52.294;13.626;2022-12-20T01:56:07;4.90;99.90
18434;DHT22;9344;52.294;13.626;2022-12-20T01:58:36;4.90;99.90
18434;DHT22;9344;52.294;13.626;2022-12-20T02:01:04;4.90;99.90
18434;DHT22;9344;52.294;13.626;2022-12-20T02:03:31;5.00;99.90
18434;DHT22;9344;52.294;13.626;2022-12-20T02:06:13;5.00;99.90
18434;DHT22;9344;52.294;13.626;2022-12-20T02:08:39;5.00;99.90
18434;DHT22;9344;52.294;13.626;2022-12-20T02:11:15;5.00;99.90
18434;DHT22;9344;52.294;13.626;2022-12-20T02:13:57;5.00;99.90
18434;DHT22;9344;52.294;13.626;2022-12-20T02:16:34;5.00;99.90
18434;DHT22;9344;52.294;13.626;2022-12-20T02:19:09;5.10;99.90
18434;DHT22;9344;52.294;13.626;2022-12-20T02:21:45;5.10;99.90
18434;DHT22;9344;52.294;13.626;2022-12-20T02:24:45;5.10;99.90
18434;DHT22;9344;52.294;13.626;2022-12-20T02:27:34;5.10;99.90
18434;DHT22;9344;52.294;13.626;2022-12-20T02:30:11;5.10;99.90
18434;DHT22;9344;52.294;13.626;2022-12-20T02:32:43;5.10;99.90
18434;DHT22;9344;52.294;13.626;2022-12-20T02:35:14;5.10;99.90
18434;DHT22;9344;52.294;13.626;2022-12-20T02:37:51;4.20;99.90
18434;DHT22;9344;52.294;13.626;2022-12-20T02:40:21;5.10;99.90
18434;DHT22;9344;52.294;13.626;2022-12-20T02:42:51;5.10;99.90
18434;DHT22;9344;52.294;13.626;2022-12-20T02:45:22;5.10;99.90
18434;DHT22;9344;52.294;13.626;2022-12-20T02:47:54;5.10;99.90
18434;DHT22;9344;52.294;13.626;2022-12-20T02:50:24;5.20;99.90
18434;DHT22;9344;52.294;13.626;2022-12-20T02:52:52;5.20;99.90
18434;DHT22;9344;52.294;13.626;2022-12-20T02:55:22;5.20;99.90
18434;DHT22;9344;52.294;13.626;2022-12-20T02:57:54;5.20;99.90
18434;DHT22;9344;52.294;13.626;2022-12-20T03:00:23;5.20;99.90
18434;DHT22;9344;52.294;13.626;2022-12-20T03:02:50;5.20;99.90
18434;DHT22;9344;52.294;13.626;2022-12-20T03:05:42;5.30;99.90
18434;DHT22;9344;52.294;13.626;2022-12-20T03:08:09;5.30;99.90
18434;DHT22;9344;52.294;13.626;2022-12-20T03:10:35;5.30;99.90
18434;DHT22;9344;52.294;13.626;2022-12-20T03:13:02;5.30;99.90
18434;DHT22;9344;52.294;13.626;2022-12-20T03:15:30;5.30;99.90
18434;DHT22;9344;52.294;13.626;2022-12-20T03:17:57;5.30;99.90
18434;DHT22;9344;52.294;13.626;2022-12-20T03:20:23;5.30;99.90
18434;DHT22;9344;52.294;13.626;2022-12-20T03:22:50;5.30;99.90
18434;DHT22;9344;52.294;13.626;2022-12-20T03:25:16;5.30;99.90
18434;DHT22;9344;52.294;13.626;2022-12-20T03:27:43;5.30;99.90
18434;DHT22;9344;52.294;13.626;2022-12-20T03:30:11;5.30;99.90
18434;DHT22;9344;52.294;13.626;2022-12-20T03:32:39;5.30;99.90
18434;DHT22;9344;52.294;13.626;2022-12-20T03:35:06;5.30;99.90
18434;DHT22;9344;52.294;13.626;2022-12-20T03:37:33;5.40;99.90
18434;DHT22;9344;52.294;13.626;2022-12-20T03:39:59;5.40;99.90
18434;DHT22;9344;52.294;13.626;2022-12-20T03:42:27;5.40;99.90
18434;DHT22;9344;52.294;13.626;2022-12-20T03:44:54;5.40;99.90
18434;DHT22;9344;52.294;13.626;2022-12-20T03:47:20;5.40;99.90
18434;DHT22;9344;52.294;13.626;2022-12-20T03:49:48;5.40;99.90
18434;DHT22;9344;52.294;13.626;2022-12-20T03:52:16;4.00;99.90
18434;DHT22;9344;52.294;13.626;2022-12-20T03:54:42;5.40;99.90
18434;DHT22;9344;52.294;13.626;2022-12-20T03:57:09;5.40;99.90
18434;DHT22;9344;52.294;13.626;2022-12-20T03:59:36;5.40;99.90
18434;DHT22;9344;52.294;13.626;2022-12-20T04:02:02;5.50;99.90
18434;DHT22;9344;52.294;13.626;2022-12-20T04:04:29;5.50;99.90
18434;DHT22;9344;52.294;13.626;2022-12-20T04:06:57;5.50;99.90
18434;DHT22;9344;52.294;13.626;2022-12-20T04:09:24;5.50;99.90
18434;DHT22;9344;52.294;13.626;2022-12-20T04:11:50;5.50;99.90
18434;DHT22;9344;52.294;13.626;2022-12-20T04:14:17;5.50;99.90
18434;DHT22;9344;52.294;13.626;2022-12-20T04:16:43;5.60;99.90
18434;DHT22;9344;52.294;13.626;2022-12-20T04:19:10;5.60;99.90
18434;DHT22;9344;52.294;13.626;2022-12-20T04:21:37;5.60;99.90
18434;DHT22;9344;52.294;13.626;2022-12-20T04:24:05;5.60;99.90
18434;DHT22;9344;52.294;13.626;2022-12-20T04:26:32;5.70;99.90
18434;DHT22;9344;52.294;13.626;2022-12-20T04:28:59;5.70;99.90
18434;DHT22;9344;52.294;13.626;2022-12-20T04:31:25;5.70;99.90
18434;DHT22;9344;52.294;13.626;2022-12-20T04:33:52;5.70;99.90
18434;DHT22;9344;52.294;13.626;2022-12-20T04:36:19;5.70;99.90
18434;DHT22;9344;52.294;13.626;2022-12-20T04:38:45;5.80;99.90
18434;DHT22;9344;52.294;13.626;2022-12-20T04:41:13;5.70;99.90
18434;DHT22;9344;52.294;13.626;2022-12-20T04:43:47;5.80;99.90
18434;DHT22;9344;52.294;13.626;2022-12-20T04:46:14;5.80;99.90
18434;DHT22;9344;52.294;13.626;2022-12-20T04:48:40;5.80;99.90
18434;DHT22;9344;52.294;13.626;2022-12-20T04:51:07;5.80;99.90
18434;DHT22;9344;52.294;13.626;2022-12-20T04:53:33;5.90;99.90
18434;DHT22;9344;52.294;13.626;2022-12-20T04:56:19;5.80;99.90
18434;DHT22;9344;52.294;13.626;2022-12-20T04:58:48;5.90;99.90
18434;DHT22;9344;52.294;13.626;2022-12-20T05:01:15;5.90;99.90
18434;DHT22;9344;52.294;13.626;2022-12-20T05:03:42;5.90;99.90
18434;DHT22;9344;52.294;13.626;2022-12-20T05:06:09;5.90;99.90
18434;DHT22;9344;52.294;13.626;2022-12-20T05:08:36;6.20;99.90
18434;DHT22;9344;52.294;13.626;2022-12-20T05:11:03;5.90;99.90
18434;DHT22;9344;52.294;13.626;2022-12-20T05:13:32;5.90;99.90
18434;DHT22;9344;52.294;13.626;2022-12-20T05:15:58;6.00;99.90
18434;DHT22;9344;52.294;13.626;2022-12-20T05:18:25;6.00;99.90
18434;DHT22;9344;52.294;13.626;2022-12-20T05:20:54;6.00;99.90
18434;DHT22;9344;52.294;13.626;2022-12-20T05:23:36;6.00;99.90
18434;DHT22;9344;52.294;13.626;2022-12-20T05:26:20;6.00;99.90
18434;DHT22;9344;52.294;13.626;2022-12-20T05:28:50;5.90;99.90
18434;DHT22;9344;52.294;13.626;2022-12-20T05:31:17;6.00;99.90
18434;DHT22;9344;52.294;13.626;2022-12-20T05:33:44;5.90;99.90
18434;DHT22;9344;52.294;13.626;2022-12-20T05:36:11;6.00;99.90
18434;DHT22;9344;52.294;13.626;2022-12-20T05:38:37;6.00;99.90
18434;DHT22;9344;52.294;13.626;2022-12-20T05:41:04;5.90;99.90
18434;DHT22;9344;52.294;13.626;2022-12-20T05:43:31;6.00;99.90
18434;DHT22;9344;52.294;13.626;2022-12-20T05:45:59;6.00;99.90
18434;DHT22;9344;52.294;13.626;2022-12-20T05:48:26;6.00;99.90
18434;DHT22;9344;52.294;13.626;2022-12-20T05:50:52;6.00;99.90
18434;DHT22;9344;52.294;13.626;2022-12-20T05:53:18;6.00;99.90
18434;DHT22;9344;52.294;13.626;2022-12-20T05:55:47;6.10;99.90
18434;DHT22;9344;52.294;13.626;2022-12-20T05:58:14;6.10;99.90
18434;DHT22;9344;52.294;13.626;2022-12-20T06:00:42;6.10;99.90
18434;DHT22;9344;52.294;13.626;2022-12-20T06:03:11;6.20;99.90
18434;DHT22;9344;52.294;13.626;2022-12-20T06:05:39;6.20;99.90
18434;DHT22;9344;52.294;13.626;2022-12-20T06:08:07;6.20;99.90
18434;DHT22;9344;52.294;13.626;2022-12-20T06:10:34;6.20;99.90
18434;DHT22;9344;52.294;13.626;2022-12-20T06:13:01;6.20;99.90
18434;DHT22;9344;52.294;13.626;2022-12-20T06:15:29;6.30;99.90
18434;DHT22;9344;52.294;13.626;2022-12-20T06:17:55;6.30;99.90
18434;DHT22;9344;52.294;13.626;2022-12-20T06:20:23;6.30;99.90
18434;DHT22;9344;52.294;13.626;2022-12-20T06:22:50;6.30;99.90
18434;DHT22;9344;52.294;13.626;2022-12-20T06:25:17;6.30;99.90
18434;DHT22;9344;52.294;13.626;2022-12-20T06:27:43;6.40;99.90
18434;DHT22;9344;52.294;13.626;2022-12-20T06:30:10;6.40;99.90
18434;DHT22;9344;52.294;13.626;2022-12-20T06:32:37;6.40;99.90
18434;DHT22;9344;52.294;13.626;2022-12-20T06:35:05;6.50;99.90
18434;DHT22;9344;52.294;13.626;2022-12-20T06:37:33;6.50;99.90
18434;DHT22;9344;52.294;13.626;2022-12-20T06:40:00;6.50;99.90
18434;DHT22;9344;52.294;13.626;2022-12-20T06:42:27;6.60;99.90
18434;DHT22;9344;52.294;13.626;2022-12-20T06:44:54;6.60;99.90
18434;DHT22;9344;52.294;13.626;2022-12-20T06:47:20;6.60;99.90
18434;DHT22;9344;52.294;13.626;2022-12-20T06:49:47;6.70;99.90
18434;DHT22;9344;52.294;13.626;2022-12-20T06:52:13;6.70;99.90
18434;DHT22;9344;52.294;13.626;2022-12-20T06:54:41;6.70;99.90
18434;DHT22;9344;52.294;13.626;2022-12-20T06:57:08;6.80;99.90
18434;DHT22;9344;52.294;13.626;2022-12-20T06:59:34;6.80;99.90
18434;DHT22;9344;52.294;13.626;2022-12-20T07:02:01;6.80;99.90
18434;DHT22;9344;52.294;13.626;2022-12-20T07:04:27;6.70;99.90
18434;DHT22;9344;52.294;13.626;2022-12-20T07:06:54;6.70;99.90
18434;DHT22;9344;52.294;13.626;2022-12-20T07:09:21;6.70;99.90
18434;DHT22;9344;52.294;13.626;2022-12-20T07:11:49;6.70;99.90
18434;DHT22;9344;52.294;13.626;2022-12-20T07:14:16;6.70;99.90
18434;DHT22;9344;52.294;13.626;2022-12-20T07:16:42;6.70;99.90
18434;DHT22;9344;52.294;13.626;2022-12-20T07:19:09;6.60;99.90
18434;DHT22;9344;52.294;13.626;2022-12-20T07:21:36;6.70;99.90
18434;DHT22;9344;52.294;13.626;2022-12-20T07:24:03;6.70;99.90
18434;DHT22;9344;52.294;13.626;2022-12-20T07:26:30;6.70;99.90
18434;DHT22;9344;52.294;13.626;2022-12-20T07:28:58;6.60;99.90
18434;DHT22;9344;52.294;13.626;2022-12-20T07:31:24;6.60;99.90
18434;DHT22;9344;52.294;13.626;2022-12-20T07:33:51;6.60;99.90
18434;DHT22;9344;52.294;13.626;2022-12-20T07:36:18;6.50;99.90
18434;DHT22;9344;52.294;13.626;2022-12-20T07:38:44;6.60;99.90
18434;DHT22;9344;52.294;13.626;2022-12-20T07:41:13;6.60;99.90
18434;DHT22;9344;52.294;13.626;2022-12-20T07:43:40;6.60;99.90
18434;DHT22;9344;52.294;13.626;2022-12-20T07:46:09;6.60;99.90
18434;DHT22;9344;52.294;13.626;2022-12-20T07:48:37;6.60;99.90
18434;DHT22;9344;52.294;13.626;2022-12-20T07:51:07;6.60;99.90
18434;DHT22;9344;52.294;13.626;2022-12-20T07:53:39;6.60;99.90
18434;DHT22;9344;52.294;13.626;2022-12-20T07:56:07;6.60;99.90
18434;DHT22;9344;52.294;13.626;2022-12-20T07:58:36;6.60;99.90
18434;DHT22;9344;52.294;13.626;2022-12-20T08:01:04;6.60;99.90
18434;DHT22;9344;52.294;13.626;2022-12-20T08:03:36;6.60;99.90
18434;DHT22;9344;52.294;13.626;2022-12-20T08:06:05;6.60;99.90
18434;DHT22;9344;52.294;13.626;2022-12-20T08:08:35;6.60;99.90
18434;DHT22;9344;52.294;13.626;2022-12-20T08:11:02;6.60;99.90
18434;DHT22;9344;52.294;13.626;2022-12-20T08:13:31;6.70;99.90
18434;DHT22;9344;52.294;13.626;2022-12-20T08:15:58;6.70;99.90
18434;DHT22;9344;52.294;13.626;2022-12-20T08:18:24;6.70;99.90
18434;DHT22;9344;52.294;13.626;2022-12-20T08:20:52;6.80;99.90
18434;DHT22;9344;52.294;13.626;2022-12-20T08:23:19;6.80;99.90
18434;DHT22;9344;52.294;13.626;2022-12-20T08:25:45;6.80;99.90
18434;DHT22;9344;52.294;13.626;2022-12-20T08:28:12;6.80;99.90
18434;DHT22;9344;52.294;13.626;2022-12-20T08:30:38;6.80;99.90
18434;DHT22;9344;52.294;13.626;2022-12-20T08:33:05;6.90;99.90
18434;DHT22;9344;52.294;13.626;2022-12-20T08:35:31;6.90;99.90
18434;DHT22;9344;52.294;13.626;2022-12-20T08:37:59;6.90;99.90
18434;DHT22;9344;52.294;13.626;2022-12-20T08:40:26;7.00;99.90
18434;DHT22;9344;52.294;13.626;2022-12-20T08:42:52;7.00;99.90
18434;DHT22;9344;52.294;13.626;2022-12-20T08:45:19;7.00;99.90
18434;DHT22;9344;52.294;13.626;2022-12-20T08:47:45;7.10;99.90
18434;DHT22;9344;52.294;13.626;2022-12-20T08:50:12;7.10;99.90
18434;DHT22;9344;52.294;13.626;2022-12-20T08:52:38;7.10;99.90
18434;DHT22;9344;52.294;13.626;2022-12-20T08:55:07;7.10;99.90
18434;DHT22;9344;52.294;13.626;2022-12-20T08:57:34;7.10;99.90
18434;DHT22;9344;52.294;13.626;2022-12-20T09:00:00;7.10;99.90
18434;DHT22;9344;52.294;13.626;2022-12-20T09:02:27;7.10;99.90
18434;DHT22;9344;52.294;13.626;2022-12-20T09:04:53;7.10;99.90
18434;DHT22;9344;52.294;13.626;2022-12-20T09:07:21;7.10;99.90
18434;DHT22;9344;52.294;13.626;2022-12-20T09:09:47;7.10;99.90
18434;DHT22;9344;52.294;13.626;2022-12-20T09:12:15;7.00;99.90
18434;DHT22;9344;52.294;13.626;2022-12-20T09:14:42;7.10;99.90
18434;DHT22;9344;52.294;13.626;2022-12-20T09:17:09;7.10;99.90
18434;DHT22;9344;52.294;13.626;2022-12-20T09:19:36;7.10;99.90
18434;DHT22;9344;52.294;13.626;2022-12-20T09:22:03;7.20;99.90
18434;DHT22;9344;52.294;13.626;2022-12-20T09:24:29;7.20;99.90
18434;DHT22;9344;52.294;13.626;2022-12-20T09:26:56;7.20;99.90
18434;DHT22;9344;52.294;13.626;2022-12-20T09:29:24;7.20;99.90
18434;DHT22;9344;52.294;13.626;2022-12-20T09:31:51;7.20;99.90
18434;DHT22;9344;52.294;13.626;2022-12-20T09:34:17;7.20;99.90
18434;DHT22;9344;52.294;13.626;2022-12-20T09:36:44;7.20;99.90
18434;DHT22;9344;52.294;13.626;2022-12-20T09:39:11;7.20;99.90
18434;DHT22;9344;52.294;13.626;2022-12-20T09:41:40;7.30;99.90
18434;DHT22;9344;52.294;13.626;2022-12-20T09:44:14;7.30;99.90
18434;DHT22;9344;52.294;13.626;2022-12-20T09:46:43;7.20;99.90
18434;DHT22;9344;52.294;13.626;2022-12-20T09:49:14;7.20;99.90
18434;DHT22;9344;52.294;13.626;2022-12-20T09:52:08;7.20;99.90
18434;DHT22;9344;52.294;13.626;2022-12-20T09:54:45;7.20;99.90
18434;DHT22;9344;52.294;13.626;2022-12-20T09:57:22;7.10;99.90
18434;DHT22;9344;52.294;13.626;2022-12-20T09:59:55;7.10;99.90
18434;DHT22;9344;52.294;13.626;2022-12-20T10:02:24;7.60;99.90
18434;DHT22;9344;52.294;13.626;2022-12-20T10:04:51;7.10;99.90
18434;DHT22;9344;52.294;13.626;2022-12-20T10:07:28;7.40;99.90
18434;DHT22;9344;52.294;13.626;2022-12-20T10:10:16;7.10;99.90
18434;DHT22;9344;52.294;13.626;2022-12-20T10:12:52;7.10;99.90
18434;DHT22;9344;52.294;13.626;2022-12-20T10:15:22;7.10;99.90
18434;DHT22;9344;52.294;13.626;2022-12-20T10:18:02;7.10;99.90
18434;DHT22;9344;52.294;13.626;2022-12-20T10:20:45;7.00;99.90
18434;DHT22;9344;52.294;13.626;2022-12-20T10:23:20;7.20;99.90
18434;DHT22;9344;52.294;13.626;2022-12-20T10:25:51;7.20;99.90
18434;DHT22;9344;52.294;13.626;2022-12-20T10:28:21;7.10;99.90
18434;DHT22;9344;52.294;13.626;2022-12-20T10:30:50;7.20;99.90
18434;DHT22;9344;52.294;13.626;2022-12-20T10:33:21;7.20;99.90
18434;DHT22;9344;52.294;13.626;2022-12-20T10:35:49;7.30;99.90
18434;DHT22;9344;52.294;13.626;2022-12-20T10:38:16;7.30;99.90
18434;DHT22;9344;52.294;13.626;2022-12-20T10:40:46;7.40;99.90
18434;DHT22;9344;52.294;13.626;2022-12-20T10:43:16;7.40;99.90
18434;DHT22;9344;52.294;13.626;2022-12-20T10:45:45;7.40;99.90
18434;DHT22;9344;52.294;13.626;2022-12-20T10:48:30;7.40;99.90
18434;DHT22;9344;52.294;13.626;2022-12-20T10:51:00;7.50;99.90
18434;DHT22;9344;52.294;13.626;2022-12-20T10:53:27;7.50;99.90
18434;DHT22;9344;52.294;13.626;2022-12-20T10:56:06;7.50;99.90
18434;DHT22;9344;52.294;13.626;2022-12-20T10:58:35;7.50;99.90
18434;DHT22;9344;52.294;13.626;2022-12-20T11:01:10;9.50;99.90
18434;DHT22;9344;52.294;13.626;2022-12-20T11:03:54;7.60;99.90
18434;DHT22;9344;52.294;13.626;2022-12-20T11:06:23;7.50;99.90
18434;DHT22;9344;52.294;13.626;2022-12-20T11:08:50;7.60;99.90
18434;DHT22;9344;52.294;13.626;2022-12-20T11:11:19;7.50;99.90
18434;DHT22;9344;52.294;13.626;2022-12-20T11:13:47;7.50;99.90
18434;DHT22;9344;52.294;13.626;2022-12-20T11:16:23;7.50;99.90
18434;DHT22;9344;52.294;13.626;2022-12-20T11:18:59;7.50;99.90
18434;DHT22;9344;52.294;13.626;2022-12-20T11:21:33;7.60;99.90
18434;DHT22;9344;52.294;13.626;2022-12-20T11:24:09;7.50;99.90
18434;DHT22;9344;52.294;13.626;2022-12-20T11:26:57;7.60;99.90
18434;DHT22;9344;52.294;13.626;2022-12-20T11:32:32;7.60;99.90
18434;DHT22;9344;52.294;13.626;2022-12-20T11:35:08;7.70;99.90
18434;DHT22;9344;52.294;13.626;2022-12-20T11:37:42;7.70;99.90
18434;DHT22;9344;52.294;13.626;2022-12-20T11:40:23;7.60;99.90
18434;DHT22;9344;52.294;13.626;2022-12-20T11:43:04;7.60;99.90
18434;DHT22;9344;52.294;13.626;2022-12-20T11:45:39;7.60;99.90
18434;DHT22;9344;52.294;13.626;2022-12-20T11:48:19;7.50;99.90
18434;DHT22;9344;52.294;13.626;2022-12-20T11:50:58;7.50;99.90
18434;DHT22;9344;52.294;13.626;2022-12-20T11:53:31;7.50;99.90
18434;DHT22;9344;52.294;13.626;2022-12-20T11:56:04;7.50;99.90
18434;DHT22;9344;52.294;13.626;2022-12-20T11:58:41;7.50;99.90
18434;DHT22;9344;52.294;13.626;2022-12-20T12:01:12;7.50;99.90
18434;DHT22;9344;52.294;13.626;2022-12-20T12:03:42;7.50;99.90
18434;DHT22;9344;52.294;13.626;2022-12-20T12:06:18;7.40;99.90
18434;DHT22;9344;52.294;13.626;2022-12-20T12:08:49;7.40;99.90
18434;DHT22;9344;52.294;13.626;2022-12-20T12:11:19;7.40;99.90
18434;DHT22;9344;52.294;13.626;2022-12-20T12:13:47;7.40;99.90
18434;DHT22;9344;52.294;13.626;2022-12-20T12:16:18;7.40;99.90
18434;DHT22;9344;52.294;13.626;2022-12-20T12:18:47;7.40;99.90
18434;DHT22;9344;52.294;13.626;2022-12-20T12:21:19;7.40;99.90
18434;DHT22;9344;52.294;13.626;2022-12-20T12:23:55;7.30;99.90
18434;DHT22;9344;52.294;13.626;2022-12-20T12:26:26;7.40;99.90
18434;DHT22;9344;52.294;13.626;2022-12-20T12:28:54;7.40;99.90
18434;DHT22;9344;52.294;13.626;2022-12-20T12:31:26;7.40;99.90
18434;DHT22;9344;52.294;13.626;2022-12-20T12:34:04;7.40;99.90
18434;DHT22;9344;52.294;13.626;2022-12-20T12:36:59;7.40;99.90
18434;DHT22;9344;52.294;13.626;2022-12-20T12:45:28;7.40;99.90
18434;DHT22;9344;52.294;13.626;2022-12-20T12:47:58;7.50;99.90
18434;DHT22;9344;52.294;13.626;2022-12-20T12:50:28;7.50;99.90
18434;DHT22;9344;52.294;13.626;2022-12-20T12:53:02;7.40;99.90
18434;DHT22;9344;52.294;13.626;2022-12-20T12:55:36;7.50;99.90
18434;DHT22;9344;52.294;13.626;2022-12-20T12:58:31;7.40;99.90
18434;DHT22;9344;52.294;13.626;2022-12-20T13:00:59;7.50;99.90
18434;DHT22;9344;52.294;13.626;2022-12-20T13:03:44;7.40;99.90
18434;DHT22;9344;52.294;13.626;2022-12-20T13:06:52;7.40;99.90
18434;DHT22;9344;52.294;13.626;2022-12-20T13:09:39;7.40;99.90
18434;DHT22;9344;52.294;13.626;2022-12-20T13:16:03;7.40;99.90
18434;DHT22;9344;52.294;13.626;2022-12-20T13:18:31;7.40;99.90
18434;DHT22;9344;52.294;13.626;2022-12-20T13:21:35;7.40;99.90
18434;DHT22;9344;52.294;13.626;2022-12-20T13:26:59;7.30;99.90
18434;DHT22;9344;52.294;13.626;2022-12-20T13:29:31;7.30;99.90
18434;DHT22;9344;52.294;13.626;2022-12-20T13:31:59;7.30;99.90
18434;DHT22;9344;52.294;13.626;2022-12-20T13:34:37;7.30;99.90
18434;DHT22;9344;52.294;13.626;2022-12-20T13:37:25;7.20;99.90
18434;DHT22;9344;52.294;13.626;2022-12-20T13:39:52;7.20;99.90
18434;DHT22;9344;52.294;13.626;2022-12-20T13:42:38;7.20;99.90
18434;DHT22;9344;52.294;13.626;2022-12-20T13:45:10;7.20;99.90
18434;DHT22;9344;52.294;13.626;2022-12-20T13:47:45;7.20;99.90
18434;DHT22;9344;52.294;13.626;2022-12-20T13:50:25;7.20;99.90
18434;DHT22;9344;52.294;13.626;2022-12-20T13:52:52;7.20;99.90
18434;DHT22;9344;52.294;13.626;2022-12-20T13:55:25;7.20;99.90
18434;DHT22;9344;52.294;13.626;2022-12-20T13:57:53;7.20;99.90
18434;DHT22;9344;52.294;13.626;2022-12-20T14:00:22;7.20;99.90
18434;DHT22;9344;52.294;13.626;2022-12-20T14:02:51;7.20;99.90
18434;DHT22;9344;52.294;13.626;2022-12-20T14:05:20;7.20;99.90
18434;DHT22;9344;52.294;13.626;2022-12-20T14:07:53;6.70;99.90
18434;DHT22;9344;52.294;13.626;2022-12-20T14:10:23;7.10;99.90
18434;DHT22;9344;52.294;13.626;2022-12-20T14:12:52;7.20;99.90
18434;DHT22;9344;52.294;13.626;2022-12-20T14:15:21;7.10;99.90
18434;DHT22;9344;52.294;13.626;2022-12-20T14:17:48;7.10;99.90
18434;DHT22;9344;52.294;13.626;2022-12-20T14:20:16;6.80;99.90
18434;DHT22;9344;52.294;13.626;2022-12-20T14:22:51;7.10;99.90
18434;DHT22;9344;52.294;13.626;2022-12-20T14:25:26;7.00;99.90
18434;DHT22;9344;52.294;13.626;2022-12-20T14:27:55;7.00;99.90
18434;DHT22;9344;52.294;13.626;2022-12-20T14:30:28;6.90;99.90
18434;DHT22;9344;52.294;13.626;2022-12-20T14:32:56;6.90;99.90
18434;DHT22;9344;52.294;13.626;2022-12-20T14:35:23;6.90;99.90
18434;DHT22;9344;52.294;13.626;2022-12-20T14:37:56;6.80;99.90
18434;DHT22;9344;52.294;13.626;2022-12-20T14:40:24;6.80;99.90
18434;DHT22;9344;52.294;13.626;2022-12-20T14:42:51;6.80;99.90
18434;DHT22;9344;52.294;13.626;2022-12-20T14:45:22;6.80;99.90
18434;DHT22;9344;52.294;13.626;2022-12-20T14:47:55;6.80;99.90
18434;DHT22;9344;52.294;13.626;2022-12-20T14:50:27;6.70;99.90
18434;DHT22;9344;52.294;13.626;2022-12-20T14:52:54;5.80;99.90
18434;DHT22;9344;52.294;13.626;2022-12-20T14:55:23;6.70;99.90
18434;DHT22;9344;52.294;13.626;2022-12-20T14:57:52;6.70;99.90
18434;DHT22;9344;52.294;13.626;2022-12-20T15:00:22;6.70;99.90
18434;DHT22;9344;52.294;13.626;2022-12-20T15:02:56;6.60;99.90
18434;DHT22;9344;52.294;13.626;2022-12-20T15:05:46;6.60;99.90
18434;DHT22;9344;52.294;13.626;2022-12-20T15:08:16;6.60;99.90
18434;DHT22;9344;52.294;13.626;2022-12-20T15:10:58;6.50;99.90
18434;DHT22;9344;52.294;13.626;2022-12-20T15:13:29;6.60;99.90
18434;DHT22;9344;52.294;13.626;2022-12-20T15:15:59;6.50;99.90
18434;DHT22;9344;52.294;13.626;2022-12-20T15:18:26;6.60;99.90
18434;DHT22;9344;52.294;13.626;2022-12-20T15:21:00;6.50;99.90
18434;DHT22;9344;52.294;13.626;2022-12-20T15:23:27;6.50;99.90
18434;DHT22;9344;52.294;13.626;2022-12-20T15:25:54;6.50;99.90
18434;DHT22;9344;52.294;13.626;2022-12-20T15:28:22;6.50;99.90
18434;DHT22;9344;52.294;13.626;2022-12-20T15:30:50;6.50;99.90
18434;DHT22;9344;52.294;13.626;2022-12-20T15:33:20;6.50;99.90
18434;DHT22;9344;52.294;13.626;2022-12-20T15:35:48;6.50;99.90
18434;DHT22;9344;52.294;13.626;2022-12-20T15:38:16;6.40;99.90
18434;DHT22;9344;52.294;13.626;2022-12-20T15:40:44;6.40;99.90
18434;DHT22;9344;52.294;13.626;2022-12-20T15:43:12;6.40;99.90
18434;DHT22;9344;52.294;13.626;2022-12-20T15:45:40;6.30;99.90
18434;DHT22;9344;52.294;13.626;2022-12-20T15:48:13;6.30;99.90
18434;DHT22;9344;52.294;13.626;2022-12-20T15:50:43;6.30;99.90
18434;DHT22;9344;52.294;13.626;2022-12-20T15:53:12;6.30;99.90
18434;DHT22;9344;52.294;13.626;2022-12-20T15:55:39;6.30;99.90
18434;DHT22;9344;52.294;13.626;2022-12-20T15:58:07;6.30;99.90
18434;DHT22;9344;52.294;13.626;2022-12-20T16:00:35;6.30;99.90
18434;DHT22;9344;52.294;13.626;2022-12-20T16:03:02;6.20;99.90
18434;DHT22;9344;52.294;13.626;2022-12-20T16:05:29;6.30;99.90
18434;DHT22;9344;52.294;13.626;2022-12-20T16:07:56;6.20;99.90
18434;DHT22;9344;52.294;13.626;2022-12-20T16:10:23;6.20;99.90
18434;DHT22;9344;52.294;13.626;2022-12-20T16:12:49;6.20;99.90
18434;DHT22;9344;52.294;13.626;2022-12-20T16:15:19;6.20;99.90
18434;DHT22;9344;52.294;13.626;2022-12-20T16:17:46;6.10;99.90